Flight Track Log - Related Links

Times and Time Zones

All times are in EDT time to prevent confusion due to time zone crossing. See the SWA1035 flight status page for this flight to view local times or setup timezone preferences in your user account.

Time Position Orientation Groundspeed Altitude Reporting Facility
EDT Latitude Longitude Course Direction KTS MPH feet Rate Location/Type
Mon 07:35:24 PM 26.5319 -81.9042 318° Northwest 256 295 6,500  Level Miami Center
Mon 07:36:24 PM 26.6169 -81.9194 351° North 244 281 9,900 3,250 Climbing Miami Center
Mon 07:37:24 PM 26.7133 -81.9097 North 273 314 13,000 3,200 Climbing Miami Center
Mon 07:38:24 PM 26.8128 -81.8719 19° North 340 391 16,300 2,950 Climbing Miami Center
Mon 07:39:24 PM 26.9111 -81.8086 30° Northeast 371 427 18,900 2,750 Climbing Miami Center
Mon 07:40:00 PM 27.3195 -81.8362 318° Northwest  Level FlightAware Approximate
Mon 07:40:24 PM 27.0297 -81.7556 22° Northeast 387 445 21,800  Level Miami Center
Mon 07:41:24 PM 27.1414 -81.7836 347° North 384 442 24,400 2,500 Climbing Miami Center
Mon 07:42:24 PM 27.2431 -81.8042 350° North 401 461 26,800 2,050 Climbing Miami Center
Mon 07:43:24 PM 27.3675 -81.7675 15° North 430 495 28,500 1,900 Climbing Miami Center
Mon 07:44:24 PM 27.5111 -81.7128 19° North 475 547 30,600 1,250 Climbing Miami Center
Mon 07:45:24 PM 27.6442 -81.6669 17° North 492 566 31,000 200 Climbing Miami Center
Mon 07:46:24 PM 27.7753 -81.6183 18° North 492 566 31,000  Level Miami Center
Mon 07:47:24 PM 27.9119 -81.5842 12° North 498 573 31,000  Level Miami Center
Mon 07:48:24 PM 28.0414 -81.5825 North 477 549 31,000  Level Miami Center
Mon 07:49:24 PM 28.1750 -81.5786 North 477 549 31,000  Level Miami Center
Mon 07:50:24 PM 28.3067 -81.5725 North 477 549 31,000  Level Miami Center
Mon 07:51:24 PM 28.4236 -81.5703 North 477 549 31,000  Level Miami Center
Mon 07:52:38 PM 28.6064 -81.5636 North 500 575 31,000  Level Jacksonville Center
Mon 07:53:39 PM 28.7400 -81.5619 North 488 562 31,000  Level Jacksonville Center
Mon 07:54:39 PM 28.8714 -81.5578 North 476 548 31,000  Level Jacksonville Center
Mon 07:55:39 PM 29.0069 -81.5536 North 476 548 31,000 400 Level Jacksonville Center
Mon 07:56:39 PM 29.1406 -81.5494 North 476 548 31,800 1,850 Climbing Jacksonville Center
Mon 07:57:39 PM 29.2533 -81.5503 360° North 469 540 34,700 2,168 Climbing Jacksonville Center
Mon 07:58:38 PM 29.3783 -81.5461 North 455 524 36,100 1,210 Climbing Jacksonville Center
Mon 07:59:38 PM 29.5036 -81.5397 North 450 518 37,100 992 Climbing Jacksonville Center
Mon 08:00:39 PM 29.6331 -81.5331 North 450 518 38,100 992 Climbing Jacksonville Center
Mon 08:01:39 PM 29.7622 -81.5289 North 455 524 39,100 1,008 Climbing Jacksonville Center
Mon 08:02:38 PM 29.8897 -81.5247 North 455 524 40,100 950 Climbing Jacksonville Center
Mon 08:03:39 PM 30.0169 -81.5228 North 455 524 41,000 446 Climbing Jacksonville Center
Mon 08:04:39 PM 30.1547 -81.5161 North 455 524 41,000  Level Jacksonville Center
Mon 08:05:39 PM 30.2800 -81.5119 North 455 524 41,000  Level Jacksonville Center
Mon 08:06:39 PM 30.4050 -81.5028 North 455 524 41,000  Level Jacksonville Center
Mon 08:07:39 PM 30.5303 -81.4961 North 455 524 41,000  Level Jacksonville Center
Mon 08:08:39 PM 30.6553 -81.4656 12° North 450 518 41,000  Level Jacksonville Center
Mon 08:09:39 PM 30.7714 -81.3911 29° Northeast 453 521 41,000  Level Jacksonville Center
Mon 08:10:39 PM 30.8872 -81.3167 29° Northeast 459 528 41,000  Level Jacksonville Center
Mon 08:11:39 PM 31.0033 -81.2397 30° Northeast 464 534 41,000  Level Jacksonville Center
Mon 08:12:39 PM 31.1211 -81.1622 29° Northeast 475 547 41,000  Level Jacksonville Center
Mon 08:13:39 PM 31.2350 -81.0850 30° Northeast 473 544 41,000  Level Jacksonville Center
Mon 08:14:39 PM 31.3508 -81.0097 29° Northeast 473 544 41,000  Level Jacksonville Center
Mon 08:15:38 PM 31.4708 -80.9317 29° Northeast 480 552 41,000  Level Jacksonville Center
Mon 08:16:39 PM 31.5906 -80.8536 29° Northeast 480 552 41,000 -450 Level Jacksonville Center
Mon 08:17:38 PM 31.6981 -80.7828 29° Northeast 480 552 40,100 -900 Descending Jacksonville Center
Mon 08:18:39 PM 31.8342 -80.6917 30° Northeast 497 572 39,200 -545 Descending Jacksonville Center
Mon 08:19:39 PM 31.9436 -80.6181 30° Northeast 497 572 39,000 -100 Descending Jacksonville Center
Mon 08:20:39 PM 32.0819 -80.5289 29° Northeast 497 572 39,000  Level Jacksonville Center
Mon 08:21:39 PM 32.2033 -80.4447 30° Northeast 497 572 39,000  Level Jacksonville Center
Mon 08:22:39 PM 32.3269 -80.3603 30° Northeast 502 578 39,000  Level Jacksonville Center
Mon 08:23:39 PM 32.4506 -80.2781 29° Northeast 497 572 39,000  Level Jacksonville Center
Mon 08:24:38 PM 32.5719 -80.1958 30° Northeast 497 572 39,000  Level Jacksonville Center
Mon 08:25:39 PM 32.6914 -80.1133 30° Northeast 497 572 39,000  Level Jacksonville Center
Mon 08:26:39 PM 32.8147 -80.0303 30° Northeast 497 572 39,000  Level Jacksonville Center
Mon 08:27:38 PM 32.9256 -79.9525 30° Northeast 497 572 39,000  Level Jacksonville Center
Mon 08:28:39 PM 33.0469 -79.8717 29° Northeast 497 572 39,000  Level Jacksonville Center
Mon 08:29:39 PM 33.1681 -79.7883 30° Northeast 497 572 39,000  Level Jacksonville Center
Mon 08:30:39 PM 33.2892 -79.7044 30° Northeast 497 572 39,000  Level Jacksonville Center
Mon 08:31:39 PM 33.4100 -79.6231 29° Northeast 497 572 39,000  Level Jacksonville Center
Mon 08:32:38 PM 33.5311 -79.5389 30° Northeast 497 572 39,000  Level Jacksonville Center
Mon 08:33:39 PM 33.6517 -79.4519 31° Northeast 497 572 39,000  Level Jacksonville Center
Mon 08:34:39 PM 33.7728 -79.3722 29° Northeast 491 565 39,000  Level Jacksonville Center
Mon 08:35:39 PM 33.8975 -79.2872 29° Northeast 497 572 39,000  Level Jacksonville Center
Mon 08:36:39 PM 34.0325 -79.1914 30° Northeast 497 572 39,000  Level Jacksonville Center
Mon 08:37:38 PM 34.1614 -79.1033 29° Northeast 502 578 39,000  Level Jacksonville Center
Mon 08:39:56 PM 34.4283 -78.9053 31° Northeast 513 590 39,000  Level Washington Center
Mon 08:40:56 PM 34.5558 -78.8222 28° Northeast 513 590 39,000  Level Washington Center
Mon 08:41:57 PM 34.6828 -78.7567 23° Northeast 506 582 39,000  Level Washington Center
Mon 08:42:55 PM 34.8158 -78.6961 20° North 500 575 39,000  Level Washington Center
Mon 08:43:56 PM 34.9447 -78.6325 22° Northeast 495 570 39,000  Level Washington Center
Mon 08:44:56 PM 35.0736 -78.5689 22° Northeast 495 570 39,000  Level Washington Center
Mon 08:45:57 PM 35.2025 -78.5025 23° Northeast 495 570 39,000  Level Washington Center
Mon 08:46:56 PM 35.3314 -78.4358 23° Northeast 500 575 39,000 -454 Level Washington Center
Mon 08:47:56 PM 35.4772 -78.3594 23° Northeast 500 575 38,100 -893 Descending Washington Center
Mon 08:48:57 PM 35.6081 -78.2975 21° North 505 581 37,200 -958 Descending Washington Center
Mon 08:49:55 PM 35.7367 -78.2353 21° North 500 575 36,200 -1,475 Descending Washington Center
Mon 08:50:55 PM 35.8675 -78.1706 22° Northeast 500 575 34,300 -1,934 Descending Washington Center
Mon 08:51:56 PM 36.0003 -78.1031 22° Northeast 500 575 32,300 -1,983 Descending Washington Center
Mon 08:52:56 PM 36.1311 -78.0378 22° Northeast 500 575 30,300 -2,033 Descending Washington Center
Mon 08:53:57 PM 36.2597 -77.9694 23° Northeast 500 575 28,200 -1,636 Descending Washington Center
Mon 08:54:57 PM 36.3842 -77.9061 22° Northeast 489 563 27,000 -610 Descending Washington Center
Mon 08:55:55 PM 36.5083 -77.8453 21° North 484 557 27,000  Level Washington Center
Mon 08:56:56 PM 36.6306 -77.7789 24° Northeast 479 551 27,000  Level Washington Center
Mon 08:57:57 PM 36.7547 -77.7150 22° Northeast 479 551 27,000 -446 Level Washington Center
Mon 08:58:57 PM 36.8808 -77.6717 15° North 474 545 26,100 -1,017 Descending Washington Center
Mon 08:59:55 PM 36.9961 -77.6333 15° North 474 545 25,000 -1,059 Descending Washington Center
Mon 09:00:56 PM 37.1200 -77.5869 17° North 469 540 24,000 -1,000 Descending Washington Center
Mon 09:01:55 PM 37.2522 -77.5436 15° North 459 528 23,000 -1,000 Descending Washington Center
Mon 09:02:56 PM 37.3739 -77.4997 16° North 448 516 22,000 -496 Descending Washington Center
Mon 09:03:56 PM 37.4914 -77.4581 16° North 437 503 22,000  Level Washington Center
Mon 09:04:57 PM 37.6067 -77.4164 16° North 437 503 22,000  Level Washington Center
Mon 09:05:55 PM 37.7200 -77.3744 16° North 432 497 22,000 -252 Level Washington Center
Mon 09:06:56 PM 37.8353 -77.3350 15° North 427 491 21,500 -694 Descending Washington Center
Mon 09:07:56 PM 37.9483 -77.2956 15° North 421 484 20,600 -992 Descending Washington Center
Mon 09:08:57 PM 38.0594 -77.2558 16° North 416 479 19,500 -908 Descending Washington Center
Mon 09:09:55 PM 38.1664 -77.2186 15° North 410 472 18,800 -1,475 Descending Washington Center
Mon 09:10:55 PM 38.2669 -77.1783 17° North 398 458 16,600 -1,750 Descending Washington Center
Mon 09:11:55 PM 38.3675 -77.1408 16° North 379 436 15,300 -1,636 Descending Washington Center
Mon 09:12:56 PM 38.4478 -77.0578 39° Northeast 360 414 13,300 -1,623 Descending Washington Center
Mon 09:13:57 PM 38.5261 -76.9664 42° Northeast 365 420 12,000 -1,250 Descending Washington Center
Mon 09:14:56 PM 38.5939 -76.8800 45° Northeast 360 414 10,800 -1,109 Descending Washington Center
Mon 09:15:56 PM 38.6614 -76.7986 43° Northeast 342 394 9,800 -950 Descending Washington Center
Mon 09:16:56 PM 38.7183 -76.7197 47° Northeast 325 374 8,900 -1,239 Descending Washington Center
Mon 09:18:31 PM 38.7833 -76.5500 64° Northeast 313 360 6,600 -1,277 Descending Potomac TRACON
Mon 09:19:31 PM 38.8500 -76.5333 11° North 275 316 5,600 -800 Descending Potomac TRACON
Mon 09:20:31 PM 38.9167 -76.5667 339° North 240 276 5,000 -600 Descending Potomac TRACON
Mon 09:21:31 PM 38.9667 -76.6000 333° Northwest 201 231 4,400 -500 Descending Potomac TRACON
Mon 09:22:31 PM 39.0000 -76.6500 311° West 167 192 4,000 -200 Descending Potomac TRACON
Mon 09:23:31 PM 39.0167 -76.7000 293° West 167 192 4,000  Level Potomac TRACON
Mon 09:24:31 PM 39.0500 -76.7500 311° West 168 193 4,000  Level Potomac TRACON
Mon 09:25:32 PM 39.0667 -76.8167 288° West 170 196 4,000  Level Potomac TRACON
Mon 09:26:32 PM 39.0833 -76.8667 293° West 163 188 4,000  Level Potomac TRACON
Mon 09:27:32 PM 39.1000 -76.9167 293° West 160 184 4,000 190 Level Potomac TRACON
Mon 09:28:38 PM 39.1333 -76.9667 311° West 200 230 4,400 238 Climbing Potomac TRACON
Mon 09:29:38 PM 39.2000 -76.9833 349° North 223 257 4,500 -368 Climbing Potomac TRACON
Mon 09:30:32 PM 39.2500 -76.9833 360° North 228 262 3,700 -947 Descending Potomac TRACON
Mon 09:31:32 PM 39.2500 -76.9333 90° East 200 230 2,700 -571 Descending Potomac TRACON
Mon 09:32:38 PM 39.2000 -76.9000 153° Southeast 168 193 2,500 -350 Descending Potomac TRACON
Mon 09:33:32 PM 39.1833 -76.8500 113° Southeast 174 200 2,000 -421 Descending Potomac TRACON
Mon 09:34:32 PM 39.1833 -76.7833 90° East 176 203 1,700 -500 Descending Potomac TRACON
Mon 09:35:32 PM 39.1833 -76.7333 90° East 138 159 1,000 -700 Descending Potomac TRACON

Login

Don't have an account? Register now (free) for customized features, flight alerts, and more!